createdAt,value
2022-08-17T00:00:40.303Z,22.40
2022-08-17T00:05:52.137Z,22.30
2022-08-17T00:10:55.452Z,22.40
2022-08-17T00:16:00.728Z,22.40
2022-08-17T00:21:10.388Z,22.20
2022-08-17T00:26:14.475Z,22.10
2022-08-17T00:31:17.296Z,22.20
2022-08-17T00:36:20.370Z,22.20
2022-08-17T00:41:25.132Z,21.90
2022-08-17T00:46:39.347Z,21.90
2022-08-17T00:51:59.232Z,21.90
2022-08-17T00:57:07.234Z,21.90
2022-08-17T01:02:14.265Z,21.80
2022-08-17T01:07:17.499Z,21.80
2022-08-17T01:12:20.028Z,21.60
2022-08-17T01:17:22.446Z,21.60
2022-08-17T01:22:25.674Z,21.50
2022-08-17T01:27:29.526Z,21.30
2022-08-17T01:32:32.189Z,21.20
2022-08-17T01:37:38.273Z,21.20
2022-08-17T01:42:49.768Z,21.20
2022-08-17T01:47:53.954Z,21.40
2022-08-17T01:53:04.578Z,21.30
2022-08-17T01:58:09.763Z,21.20
2022-08-17T02:03:13.675Z,21.00
2022-08-17T02:08:19.852Z,21.10
2022-08-17T02:13:22.686Z,20.80
2022-08-17T02:18:25.854Z,20.90
2022-08-17T02:23:32.166Z,20.90
2022-08-17T02:28:35.018Z,20.70
2022-08-17T02:33:42.793Z,20.70
2022-08-17T02:38:46.060Z,20.60
2022-08-17T02:43:48.483Z,20.80
2022-08-17T02:48:50.919Z,20.60
2022-08-17T02:53:53.415Z,20.60
2022-08-17T02:59:15.792Z,20.50
2022-08-17T03:04:18.495Z,20.50
2022-08-17T03:09:20.936Z,20.50
2022-08-17T03:14:26.222Z,20.50
2022-08-17T03:19:28.876Z,20.40
2022-08-17T03:24:31.472Z,20.30
2022-08-17T03:29:33.915Z,20.30
2022-08-17T03:34:36.289Z,20.20
2022-08-17T03:39:39.029Z,20.30
2022-08-17T03:44:41.469Z,20.30
2022-08-17T03:50:02.705Z,20.30
2022-08-17T03:55:36.126Z,20.10
2022-08-17T04:00:39.773Z,20.20
2022-08-17T04:05:42.732Z,20.60
2022-08-17T04:10:45.480Z,20.60
2022-08-17T04:15:49.328Z,20.80
2022-08-17T04:20:51.843Z,20.70
2022-08-17T04:25:54.298Z,20.80
2022-08-17T04:30:57.340Z,20.90
2022-08-17T04:36:02.536Z,21.00
2022-08-17T04:41:25.387Z,21.10
2022-08-17T04:46:37.515Z,21.20
2022-08-17T04:51:47.927Z,21.30
2022-08-17T04:56:58.767Z,21.50
2022-08-17T05:02:01.218Z,21.60
2022-08-17T05:07:04.988Z,21.70
2022-08-17T05:12:07.858Z,21.70
2022-08-17T05:17:11.093Z,21.80
2022-08-17T05:22:14.669Z,21.90
2022-08-17T05:27:19.057Z,22.00
2022-08-17T05:32:48.324Z,22.20
2022-08-17T05:37:46.588Z,22.20
2022-08-17T05:42:50.284Z,22.40
2022-08-17T05:47:52.896Z,22.40
2022-08-17T05:53:08.289Z,22.60
2022-08-17T05:58:19.781Z,22.70
2022-08-17T06:03:59.521Z,22.90
2022-08-17T06:09:27.666Z,23.00
2022-08-17T06:14:59.675Z,23.20
2022-08-17T06:20:15.449Z,23.30
2022-08-17T06:25:34.849Z,23.40
2022-08-17T06:31:07.913Z,23.50
2022-08-17T06:36:31.629Z,23.70
2022-08-17T06:41:53.096Z,23.80
2022-08-17T06:47:12.528Z,24.00
2022-08-17T06:52:47.194Z,24.00
2022-08-17T06:58:05.845Z,24.20
2022-08-17T07:03:37.877Z,24.40
2022-08-17T07:08:57.902Z,24.60
2022-08-17T07:14:15.187Z,24.70
2022-08-17T07:19:23.667Z,24.90
2022-08-17T07:24:58.489Z,25.00
2022-08-17T07:30:10.276Z,25.10
2022-08-17T07:35:20.018Z,25.20
2022-08-17T07:40:33.838Z,25.30
2022-08-17T07:46:07.300Z,25.60
2022-08-17T07:51:27.058Z,25.70
2022-08-17T07:56:41.831Z,25.80
2022-08-17T08:02:17.110Z,25.90
2022-08-17T08:07:21.053Z,26.10
2022-08-17T08:12:47.246Z,26.30
2022-08-17T08:17:58.640Z,26.50
2022-08-17T08:23:05.668Z,26.60
2022-08-17T08:28:21.510Z,26.90
2022-08-17T08:33:35.096Z,26.90
2022-08-17T08:38:48.057Z,27.10
2022-08-17T08:44:18.480Z,27.20
2022-08-17T08:50:02.599Z,27.40
2022-08-17T08:55:13.502Z,27.40
2022-08-17T09:00:21.842Z,27.60
2022-08-17T09:05:58.155Z,27.80
2022-08-17T09:11:03.933Z,27.90
2022-08-17T09:16:36.541Z,28.10
2022-08-17T09:21:47.682Z,28.20
2022-08-17T09:27:04.082Z,28.60
2022-08-17T09:32:35.884Z,28.80
2022-08-17T09:37:54.086Z,29.10
2022-08-17T09:42:59.812Z,29.60
2022-08-17T09:48:25.022Z,29.90
2022-08-17T09:53:31.999Z,30.20
2022-08-17T09:59:17.238Z,30.50
2022-08-17T10:04:29.969Z,30.90
2022-08-17T10:09:50.592Z,31.30
2022-08-17T10:15:09.623Z,31.60
2022-08-17T10:20:20.592Z,32.00
2022-08-17T10:25:59.771Z,32.20
2022-08-17T10:31:33.011Z,32.60
2022-08-17T10:37:02.557Z,32.60
2022-08-17T10:42:30.783Z,32.00
2022-08-17T10:48:04.340Z,32.20
2022-08-17T10:53:07.523Z,32.10
2022-08-17T10:58:22.100Z,32.20
2022-08-17T11:03:26.399Z,32.40
2022-08-17T11:09:08.884Z,32.80
2022-08-17T11:14:24.014Z,32.90
2022-08-17T11:19:51.032Z,32.80
2022-08-17T11:24:54.731Z,32.50
2022-08-17T11:30:04.471Z,33.20
2022-08-17T11:35:22.023Z,33.40
2022-08-17T11:40:52.617Z,33.90
2022-08-17T11:46:10.233Z,34.30
2022-08-17T11:51:27.653Z,34.40
2022-08-17T11:56:42.943Z,33.80
2022-08-17T12:01:56.785Z,33.40
2022-08-17T12:07:08.758Z,33.20
2022-08-17T12:12:19.346Z,33.00
2022-08-17T12:17:40.939Z,33.40
2022-08-17T12:23:12.080Z,34.10
2022-08-17T12:28:28.006Z,34.30
2022-08-17T12:33:30.906Z,34.90
2022-08-17T12:38:36.275Z,34.70
2022-08-17T12:43:38.785Z,34.80
2022-08-17T12:48:58.826Z,35.40
2022-08-17T12:54:02.803Z,35.80
2022-08-17T12:59:07.200Z,35.80
2022-08-17T13:04:14.229Z,36.50
2022-08-17T13:09:35.972Z,37.90
2022-08-17T13:14:46.234Z,39.20
2022-08-17T13:19:50.688Z,38.50
2022-08-17T13:24:58.009Z,38.30
2022-08-17T13:30:07.480Z,39.90
2022-08-17T13:35:39.603Z,41.10
2022-08-17T13:40:49.993Z,42.40
2022-08-17T13:45:52.964Z,43.00
2022-08-17T13:50:55.403Z,43.80
2022-08-17T13:56:33.436Z,43.80
2022-08-17T14:01:44.132Z,44.10
2022-08-17T14:06:53.967Z,45.00
2022-08-17T14:11:58.114Z,46.00
2022-08-17T14:17:00.584Z,45.80
2022-08-17T14:22:04.979Z,46.10
2022-08-17T14:27:12.184Z,45.50
2022-08-17T14:32:36.162Z,43.00
2022-08-17T14:37:39.237Z,42.30
2022-08-17T14:42:44.135Z,44.30
2022-08-17T14:47:48.685Z,45.10
2022-08-17T14:52:51.254Z,45.50
2022-08-17T14:57:53.802Z,46.10
2022-08-17T15:02:58.829Z,44.60
2022-08-17T15:08:02.729Z,42.30
2022-08-17T15:13:14.596Z,40.30
2022-08-17T15:18:17.655Z,38.80
2022-08-17T15:23:22.244Z,38.00
2022-08-17T15:28:25.358Z,37.60
2022-08-17T15:33:30.254Z,37.20
2022-08-17T15:38:39.703Z,37.00
2022-08-17T15:43:43.709Z,37.00
2022-08-17T15:48:50.051Z,37.10
2022-08-17T15:54:00.302Z,37.80
2022-08-17T15:59:07.067Z,39.00
2022-08-17T16:04:26.820Z,38.20
2022-08-17T16:09:33.671Z,37.20
2022-08-17T16:14:36.450Z,36.10
2022-08-17T16:19:40.200Z,35.30
2022-08-17T16:24:56.940Z,35.00
2022-08-17T16:30:00.463Z,34.40
2022-08-17T16:35:05.335Z,34.10
2022-08-17T16:40:08.601Z,33.80
2022-08-17T16:45:16.959Z,33.50
2022-08-17T16:50:22.097Z,33.40
2022-08-17T16:55:24.554Z,33.20
2022-08-17T17:00:26.985Z,32.90
2022-08-17T17:05:57.771Z,32.70
2022-08-17T17:11:15.151Z,32.40
2022-08-17T17:16:24.029Z,32.40
2022-08-17T17:21:35.711Z,32.30
2022-08-17T17:27:07.403Z,32.10
2022-08-17T17:32:21.552Z,31.90
2022-08-17T17:37:29.070Z,31.50
2022-08-17T17:42:33.032Z,31.30
2022-08-17T17:47:36.419Z,31.10
2022-08-17T17:53:08.899Z,30.90
2022-08-17T17:58:37.497Z,30.70
2022-08-17T18:04:01.648Z,30.40
2022-08-17T18:09:34.164Z,30.30
2022-08-17T18:14:41.223Z,30.00
2022-08-17T18:19:45.256Z,29.60
2022-08-17T18:24:56.194Z,29.50
2022-08-17T18:30:07.110Z,29.50
2022-08-17T18:35:11.541Z,29.30
2022-08-17T18:40:16.798Z,29.20
2022-08-17T18:45:42.403Z,28.90
2022-08-17T18:50:45.792Z,28.60
2022-08-17T18:55:48.393Z,28.50
2022-08-17T19:00:51.537Z,28.50
2022-08-17T19:06:22.052Z,28.00
2022-08-17T19:11:30.118Z,27.80
2022-08-17T19:16:43.828Z,27.70
2022-08-17T19:22:00.095Z,27.70
2022-08-17T19:27:18.568Z,27.40
2022-08-17T19:32:27.885Z,27.30
2022-08-17T19:37:51.849Z,27.20
2022-08-17T19:43:27.636Z,27.20
2022-08-17T19:48:41.838Z,26.90
2022-08-17T19:54:04.992Z,26.90
2022-08-17T19:59:12.184Z,26.50
2022-08-17T20:04:32.389Z,26.40
2022-08-17T20:09:40.876Z,26.20
2022-08-17T20:15:04.520Z,26.20
2022-08-17T20:20:20.239Z,26.10
2022-08-17T20:25:31.046Z,26.10
2022-08-17T20:30:41.438Z,26.10
2022-08-17T20:36:15.569Z,26.00
2022-08-17T20:41:26.736Z,25.90
2022-08-17T20:46:38.566Z,25.90
2022-08-17T20:52:00.439Z,25.70
2022-08-17T20:57:06.210Z,25.60
2022-08-17T21:02:21.829Z,25.50
2022-08-17T21:07:54.070Z,25.40
2022-08-17T21:13:10.248Z,25.40
2022-08-17T21:18:38.679Z,25.10
2022-08-17T21:24:00.098Z,25.20
2022-08-17T21:29:32.562Z,25.10
2022-08-17T21:35:12.419Z,24.90
2022-08-17T21:40:18.481Z,25.00
2022-08-17T21:45:27.496Z,25.00
2022-08-17T21:50:30.060Z,24.80
2022-08-17T21:55:36.018Z,24.80
2022-08-17T22:00:38.638Z,24.60
2022-08-17T22:05:41.137Z,24.60
2022-08-17T22:10:45.456Z,24.60
2022-08-17T22:16:27.955Z,24.60
2022-08-17T22:21:32.163Z,24.40
2022-08-17T22:26:58.086Z,24.20
2022-08-17T22:32:00.535Z,24.40
2022-08-17T22:37:29.140Z,24.20
2022-08-17T22:42:32.261Z,24.00
2022-08-17T22:47:40.999Z,23.90
2022-08-17T22:53:03.501Z,23.90
2022-08-17T22:58:37.146Z,23.90
2022-08-17T23:03:53.959Z,23.70
2022-08-17T23:08:57.668Z,23.50
2022-08-17T23:14:00.154Z,23.50
2022-08-17T23:19:02.605Z,23.60
2022-08-17T23:24:07.569Z,23.60
2022-08-17T23:29:10.072Z,23.50
2022-08-17T23:34:14.680Z,23.50
2022-08-17T23:39:27.350Z,23.40
2022-08-17T23:44:31.104Z,23.30
2022-08-17T23:49:34.811Z,23.30
2022-08-17T23:54:44.573Z,23.30
2022-08-17T23:59:47.349Z,23.20
